Time;durP1;ratioP1;P1;durP2;ratioP2;P2;SDS_P1;SDS_P2;PMS_P1;PMS_P2;Temp;Humidity;BMP_temperature;BMP_pressure;BME280_temperature;BME280_humidity;BME280_pressure;Samples;Min_cycle;Max_cycle;Signal;HPM_P1;HPM_P2
2021/06/21 00:01:25;;;;;;;1.40;1.30;;;17.10;99.90;;;;;;5035548;28;20420;-69
2021/06/21 00:03:51;;;;;;;6.37;2.00;;;17.10;99.90;;;;;;5035846;28;20903;-70
2021/06/21 00:06:16;;;;;;;2.00;0.80;;;17.20;99.90;;;;;;5035665;28;20660;-69
2021/06/21 00:08:42;;;;;;;1.00;0.90;;;17.20;99.90;;;;;;5035031;28;20221;-68
2021/06/21 00:11:08;;;;;;;1.90;1.17;;;17.20;99.90;;;;;;5035428;28;20192;-70
2021/06/21 00:13:34;;;;;;;0.63;0.63;;;17.20;99.90;;;;;;5034134;28;20213;-69
2021/06/21 00:15:59;;;;;;;1.20;0.90;;;17.20;99.90;;;;;;5035364;28;20217;-71
2021/06/21 00:18:25;;;;;;;3.63;1.50;;;17.20;99.90;;;;;;5034881;28;20843;-72
2021/06/21 00:20:52;;;;;;;3.60;1.00;;;17.20;99.90;;;;;;5035590;28;20249;-71
2021/06/21 00:23:18;;;;;;;2.33;0.80;;;17.20;99.90;;;;;;5034046;28;20228;-69
2021/06/21 00:25:45;;;;;;;6.13;1.10;;;17.20;99.90;;;;;;5035226;28;20490;-71
2021/06/21 00:28:10;;;;;;;2.50;1.10;;;17.20;99.90;;;;;;5033514;28;20436;-71
2021/06/21 00:30:36;;;;;;;2.43;1.20;;;17.20;99.90;;;;;;5034866;28;20421;-70
2021/06/21 00:33:02;;;;;;;0.83;0.60;;;17.30;99.90;;;;;;5035194;28;20201;-71
2021/06/21 00:35:28;;;;;;;1.77;0.80;;;17.30;99.90;;;;;;5034948;28;20197;-72
2021/06/21 00:37:57;;;;;;;7.00;1.60;;;17.30;99.90;;;;;;5034596;28;20413;-68
2021/06/21 00:40:23;;;;;;;1.80;1.10;;;17.30;99.90;;;;;;5034845;28;20417;-69
2021/06/21 00:42:48;;;;;;;2.23;0.90;;;17.30;99.90;;;;;;5034707;28;20427;-69
2021/06/21 00:45:16;;;;;;;2.67;1.30;;;17.30;99.90;;;;;;5034531;28;20516;-70
2021/06/21 00:47:42;;;;;;;2.00;1.03;;;17.40;99.90;;;;;;5034455;28;20193;-70
2021/06/21 00:50:09;;;;;;;1.10;0.90;;;17.30;99.90;;;;;;5034766;28;20936;-69
2021/06/21 00:52:35;;;;;;;4.27;1.43;;;17.40;99.90;;;;;;5034156;28;20417;-68
2021/06/21 00:55:01;;;;;;;1.67;0.90;;;17.40;99.90;;;;;;5034513;28;20921;-69
2021/06/21 00:57:32;;;;;;;2.47;1.07;;;17.40;99.90;;;;;;5032999;28;20623;-69
2021/06/21 00:59:59;;;;;;;3.33;1.43;;;17.40;99.90;;;;;;5034589;28;20414;-67
2021/06/21 01:02:27;;;;;;;3.10;1.23;;;17.50;99.90;;;;;;5034552;28;20400;-69
2021/06/21 01:04:54;;;;;;;0.60;0.60;;;17.50;99.90;;;;;;5034519;28;20390;-69
2021/06/21 01:07:20;;;;;;;2.43;1.10;;;17.50;99.90;;;;;;5033270;28;20649;-68
2021/06/21 01:09:47;;;;;;;1.30;1.30;;;17.50;99.90;;;;;;5034023;28;20448;-68
2021/06/21 01:12:49;;;;;;;4.80;1.20;;;17.40;99.90;;;;;;5034310;28;20235;-69
2021/06/21 01:15:19;;;;;;;2.10;0.80;;;17.40;99.90;;;;;;4980110;28;20497;-68
2021/06/21 01:17:59;;;;;;;1.50;0.90;;;17.30;99.90;;;;;;5034047;28;20431;-69
2021/06/21 01:20:42;;;;;;;1.50;0.87;;;17.30;99.90;;;;;;5034089;28;20421;-68
2021/06/21 01:23:36;;;;;;;6.00;1.03;;;17.30;99.90;;;;;;5034309;28;20898;-68
2021/06/21 01:26:42;;;;;;;1.07;0.90;;;17.30;99.90;;;;;;5034005;28;20443;-68
2021/06/21 01:29:52;;;;;;;2.27;1.50;;;17.30;99.90;;;;;;5033539;28;20524;-69
2021/06/21 01:32:29;;;;;;;1.20;0.97;;;17.30;99.90;;;;;;5014207;28;20742;-68
2021/06/21 01:34:57;;;;;;;4.63;1.20;;;17.20;99.90;;;;;;5012883;28;21008;-69
2021/06/21 01:37:24;;;;;;;1.97;1.10;;;17.20;99.90;;;;;;5032237;28;20424;-68
2021/06/21 01:39:55;;;;;;;2.30;1.13;;;17.20;99.90;;;;;;5033666;28;20455;-68
2021/06/21 01:42:23;;;;;;;7.10;1.37;;;17.20;99.90;;;;;;5033834;28;20407;-67
2021/06/21 01:45:03;;;;;;;1.37;0.87;;;17.20;99.90;;;;;;5033855;28;20401;-68
2021/06/21 01:47:31;;;;;;;2.93;0.83;;;17.20;99.90;;;;;;5033457;28;20404;-69
2021/06/21 01:49:57;;;;;;;1.83;1.10;;;17.20;99.90;;;;;;5032084;28;20976;-67
2021/06/21 01:52:24;;;;;;;6.63;1.50;;;17.20;99.90;;;;;;5033853;28;20428;-68
2021/06/21 01:54:54;;;;;;;5.00;1.57;;;17.20;99.90;;;;;;5032820;28;20460;-69
2021/06/21 01:57:29;;;;;;;1.47;1.37;;;17.20;99.90;;;;;;5031797;28;20504;-69
2021/06/21 01:59:56;;;;;;;2.63;1.43;;;17.20;99.90;;;;;;5031993;28;20440;-70
2021/06/21 02:02:23;;;;;;;1.37;0.93;;;17.20;99.90;;;;;;5032119;28;20780;-69
2021/06/21 02:04:53;;;;;;;1.90;1.67;;;17.20;99.90;;;;;;5033420;28;21045;-69
2021/06/21 02:07:21;;;;;;;1.50;1.17;;;17.20;99.90;;;;;;5032726;28;20429;-69
2021/06/21 02:09:48;;;;;;;2.10;0.90;;;17.30;99.90;;;;;;5033179;28;20437;-69
2021/06/21 02:12:21;;;;;;;3.23;1.50;;;17.30;99.90;;;;;;5032144;28;20504;-69
2021/06/21 02:14:50;;;;;;;3.73;1.70;;;17.30;99.90;;;;;;5033464;28;20456;-69
2021/06/21 02:17:20;;;;;;;1.00;1.00;;;17.30;99.90;;;;;;5031786;28;20419;-70
2021/06/21 02:19:46;;;;;;;2.90;1.20;;;17.30;99.90;;;;;;5033246;28;20448;-70
2021/06/21 02:22:12;;;;;;;7.73;2.40;;;17.30;99.90;;;;;;5032925;28;20822;-69
2021/06/21 02:24:38;;;;;;;2.40;0.87;;;17.30;99.90;;;;;;5033640;28;20185;-70
2021/06/21 02:27:06;;;;;;;3.60;1.30;;;17.30;99.90;;;;;;5033234;28;20757;-69
2021/06/21 02:29:33;;;;;;;2.07;1.50;;;17.30;99.90;;;;;;5031641;28;20491;-70
2021/06/21 02:31:59;;;;;;;1.87;1.23;;;17.30;99.90;;;;;;5033381;28;20752;-69
2021/06/21 02:34:25;;;;;;;4.57;1.60;;;17.30;99.90;;;;;;5033202;28;20445;-69
2021/06/21 02:36:52;;;;;;;1.57;1.27;;;17.40;99.90;;;;;;5032887;28;20938;-69
2021/06/21 02:39:18;;;;;;;2.70;1.13;;;17.40;99.90;;;;;;5032744;28;20771;-70
2021/06/21 02:41:44;;;;;;;1.47;0.93;;;17.40;99.90;;;;;;5033145;28;20759;-70
2021/06/21 02:44:10;;;;;;;2.70;1.33;;;17.30;99.90;;;;;;5033143;28;20748;-69
2021/06/21 02:46:35;;;;;;;1.47;0.90;;;17.30;99.90;;;;;;5033183;28;20401;-69
2021/06/21 02:49:02;;;;;;;1.73;1.60;;;17.30;99.90;;;;;;5032442;28;20232;-70
2021/06/21 02:51:38;;;;;;;5.30;1.23;;;17.30;99.90;;;;;;5032840;28;20545;-68
2021/06/21 02:54:07;;;;;;;2.70;0.80;;;17.20;99.90;;;;;;5033254;28;20926;-70
2021/06/21 02:56:38;;;;;;;1.97;1.50;;;17.20;99.90;;;;;;5033024;28;20408;-68
2021/06/21 02:59:10;;;;;;;2.00;1.07;;;17.10;99.90;;;;;;5032601;28;20471;-69
2021/06/21 03:01:40;;;;;;;1.33;1.03;;;17.10;99.90;;;;;;5031542;28;20562;-69
2021/06/21 03:04:08;;;;;;;7.47;1.50;;;17.10;99.90;;;;;;5032567;28;20419;-69
2021/06/21 03:06:35;;;;;;;1.77;1.27;;;17.10;99.90;;;;;;5034815;28;20563;-68
2021/06/21 03:09:01;;;;;;;1.33;1.10;;;17.10;99.90;;;;;;5036160;28;20436;-69
2021/06/21 03:11:29;;;;;;;3.60;1.23;;;17.10;99.90;;;;;;5036674;28;20814;-69
2021/06/21 03:13:55;;;;;;;2.60;1.07;;;17.10;99.90;;;;;;5036048;28;20521;-69
2021/06/21 03:16:22;;;;;;;1.30;1.27;;;17.10;99.90;;;;;;5036456;28;20971;-69
2021/06/21 03:18:49;;;;;;;2.13;1.20;;;17.10;99.90;;;;;;5035880;28;20428;-68
2021/06/21 03:21:17;;;;;;;2.37;1.30;;;17.10;99.90;;;;;;5036584;28;20379;-69
2021/06/21 03:23:43;;;;;;;1.30;1.20;;;17.00;99.90;;;;;;5035010;28;20412;-71
2021/06/21 03:26:11;;;;;;;1.50;1.33;;;17.10;99.90;;;;;;5035786;28;20432;-68
2021/06/21 03:28:37;;;;;;;1.50;1.17;;;17.10;99.90;;;;;;5034558;28;20539;-70
2021/06/21 03:31:07;;;;;;;2.20;1.47;;;17.10;99.90;;;;;;5036553;28;20507;-68
2021/06/21 03:33:34;;;;;;;2.77;1.40;;;17.10;99.90;;;;;;5036363;28;20241;-69
2021/06/21 03:36:00;;;;;;;2.30;1.50;;;17.10;99.90;;;;;;5035690;28;20440;-69
2021/06/21 03:38:28;;;;;;;1.43;0.90;;;17.20;99.90;;;;;;5035682;28;20409;-69
2021/06/21 03:40:58;;;;;;;6.03;2.50;;;17.30;99.90;;;;;;5036158;28;20799;-70
2021/06/21 03:43:25;;;;;;;3.10;1.53;;;17.30;99.90;;;;;;5034707;28;20969;-69
2021/06/21 03:45:54;;;;;;;4.03;1.77;;;17.30;99.90;;;;;;5036025;28;20467;-68
2021/06/21 03:48:21;;;;;;;4.00;1.90;;;17.40;99.90;;;;;;5035360;28;20405;-68
2021/06/21 03:50:47;;;;;;;1.50;1.17;;;17.50;99.90;;;;;;5035309;28;20431;-68
2021/06/21 03:53:14;;;;;;;1.97;1.37;;;17.50;99.90;;;;;;5035839;28;20752;-70
2021/06/21 03:55:40;;;;;;;2.60;1.73;;;17.60;99.90;;;;;;5035813;28;20410;-69
2021/06/21 03:58:06;;;;;;;3.33;1.23;;;17.60;99.90;;;;;;5035405;28;20900;-70
2021/06/21 04:00:33;;;;;;;3.70;1.57;;;17.60;99.90;;;;;;5035602;28;20198;-69
2021/06/21 04:02:59;;;;;;;5.10;1.33;;;17.80;99.90;;;;;;5035702;28;20405;-69
2021/06/21 04:05:26;;;;;;;1.00;0.90;;;17.90;99.90;;;;;;5034174;28;20883;-69
2021/06/21 04:07:52;;;;;;;0.70;0.70;;;18.00;99.90;;;;;;5035140;28;20197;-70
2021/06/21 04:10:20;;;;;;;5.77;1.00;;;18.20;99.90;;;;;;5035267;28;20453;-69
2021/06/21 04:12:47;;;;;;;1.67;1.17;;;18.30;99.90;;;;;;5035648;28;20889;-70
2021/06/21 04:15:15;;;;;;;2.93;1.17;;;18.50;99.90;;;;;;5034111;28;20839;-70
2021/06/21 04:17:41;;;;;;;2.70;1.60;;;18.80;99.90;;;;;;5034290;28;20419;-70
2021/06/21 04:20:17;;;;;;;1.77;1.27;;;19.00;99.90;;;;;;5034747;28;20806;-70
2021/06/21 04:22:43;;;;;;;5.13;1.13;;;19.40;99.90;;;;;;5035315;28;20396;-70
2021/06/21 04:25:12;;;;;;;4.77;1.10;;;19.70;99.90;;;;;;5035193;28;20775;-68
2021/06/21 04:27:39;;;;;;;1.93;1.50;;;19.90;99.90;;;;;;5034738;28;20409;-65
2021/06/21 04:30:10;;;;;;;2.87;1.57;;;19.90;99.90;;;;;;5034669;28;20431;-67
2021/06/21 04:32:37;;;;;;;2.33;1.57;;;19.80;99.90;;;;;;5035200;28;20379;-70
2021/06/21 04:35:05;;;;;;;2.80;0.97;;;19.80;99.90;;;;;;5035374;28;20419;-67
2021/06/21 04:37:31;;;;;;;4.73;1.53;;;19.70;99.90;;;;;;5033768;28;20420;-66
2021/06/21 04:39:56;;;;;;;3.97;1.30;;;19.60;99.90;;;;;;5033552;28;20432;-68
2021/06/21 04:42:22;;;;;;;4.00;1.40;;;19.50;99.90;;;;;;5033545;28;20192;-66
2021/06/21 04:44:48;;;;;;;4.23;1.40;;;19.40;99.90;;;;;;5033976;28;20182;-68
2021/06/21 04:47:13;;;;;;;2.73;1.97;;;19.30;99.90;;;;;;5034393;28;20177;-66
2021/06/21 04:49:39;;;;;;;2.80;1.70;;;19.20;99.90;;;;;;5034441;28;20190;-65
2021/06/21 04:52:08;;;;;;;6.27;1.40;;;19.00;99.90;;;;;;5034425;28;20795;-66
2021/06/21 04:54:34;;;;;;;1.67;1.57;;;19.10;99.90;;;;;;5034848;28;20595;-67
2021/06/21 04:56:59;;;;;;;4.93;1.20;;;19.00;99.90;;;;;;5034540;28;20398;-67
2021/06/21 04:59:25;;;;;;;2.93;1.63;;;19.00;99.90;;;;;;5034115;28;20204;-69
2021/06/21 05:01:51;;;;;;;1.30;1.30;;;18.90;99.90;;;;;;5034498;28;20176;-67
2021/06/21 05:04:16;;;;;;;1.73;1.40;;;18.90;99.90;;;;;;5034575;28;20262;-67
2021/06/21 05:06:42;;;;;;;1.97;1.20;;;18.90;99.90;;;;;;5034258;28;20177;-68
2021/06/21 05:09:09;;;;;;;2.93;1.10;;;18.90;99.90;;;;;;5033912;28;20200;-66
2021/06/21 05:11:35;;;;;;;5.17;3.70;;;19.00;99.90;;;;;;5034518;28;20176;-67
2021/06/21 05:14:01;;;;;;;1.60;1.23;;;19.10;99.90;;;;;;5034178;28;20851;-66
2021/06/21 05:16:27;;;;;;;1.83;1.60;;;19.30;99.90;;;;;;5034156;28;20420;-66
2021/06/21 05:18:53;;;;;;;3.20;1.20;;;19.50;99.90;;;;;;5033599;28;20439;-69
2021/06/21 05:21:20;;;;;;;1.43;1.30;;;19.70;99.90;;;;;;5034478;28;20799;-70
2021/06/21 05:23:46;;;;;;;1.40;1.20;;;19.80;99.90;;;;;;5034281;28;20413;-66
2021/06/21 05:26:12;;;;;;;2.70;1.37;;;19.90;99.90;;;;;;5034028;28;20386;-66
2021/06/21 05:28:38;;;;;;;1.80;1.33;;;20.10;99.90;;;;;;5033637;28;20441;-69
2021/06/21 05:31:04;;;;;;;1.90;1.40;;;20.20;99.90;;;;;;5032878;28;20772;-69
2021/06/21 05:33:29;;;;;;;4.33;1.10;;;20.30;99.90;;;;;;5033923;28;20224;-68
2021/06/21 05:35:55;;;;;;;1.70;1.50;;;20.40;99.90;;;;;;5033548;28;20170;-68
2021/06/21 05:38:21;;;;;;;1.80;1.20;;;20.50;99.90;;;;;;5031958;28;20683;-67
2021/06/21 05:40:46;;;;;;;1.97;1.60;;;20.60;99.90;;;;;;5033716;28;20174;-69
2021/06/21 05:43:12;;;;;;;1.90;1.80;;;20.80;99.90;;;;;;5033891;28;20496;-70
2021/06/21 05:45:38;;;;;;;1.00;0.80;;;21.10;99.90;;;;;;5033620;28;20182;-69
2021/06/21 05:48:05;;;;;;;1.10;1.00;;;21.40;99.90;;;;;;5033052;28;20541;-68
2021/06/21 05:50:31;;;;;;;2.20;1.20;;;21.70;99.90;;;;;;5033389;28;20192;-67
2021/06/21 05:52:56;;;;;;;4.93;1.37;;;22.10;99.90;;;;;;5033403;28;20516;-69
2021/06/21 05:55:23;;;;;;;2.43;0.90;;;22.30;99.90;;;;;;5033514;28;21005;-68
2021/06/21 05:57:53;;;;;;;1.13;0.93;;;22.50;99.90;;;;;;5033184;28;20175;-68
2021/06/21 06:00:21;;;;;;;0.93;0.80;;;22.70;99.90;;;;;;5033786;28;20781;-67
2021/06/21 06:02:47;;;;;;;1.30;1.20;;;22.80;99.90;;;;;;5033284;28;20406;-67
2021/06/21 06:05:13;;;;;;;0.60;0.60;;;22.80;99.90;;;;;;5033262;28;20511;-66
2021/06/21 06:07:39;;;;;;;2.13;1.27;;;22.80;99.90;;;;;;5033201;28;20420;-67
2021/06/21 06:10:06;;;;;;;1.50;1.03;;;22.90;99.90;;;;;;5033168;28;20449;-67
2021/06/21 06:12:32;;;;;;;2.10;0.80;;;23.10;99.90;;;;;;5033458;28;20253;-67
2021/06/21 06:14:57;;;;;;;1.63;1.20;;;23.30;99.90;;;;;;5033383;28;20547;-67
2021/06/21 06:17:23;;;;;;;2.53;1.00;;;23.50;99.90;;;;;;5032587;28;20206;-67
2021/06/21 06:19:49;;;;;;;0.90;0.80;;;23.40;99.90;;;;;;5033196;28;20205;-67
2021/06/21 06:22:14;;;;;;;3.23;1.10;;;23.30;99.90;;;;;;5033577;28;20226;-66
2021/06/21 06:24:40;;;;;;;4.83;0.93;;;23.20;99.90;;;;;;5033343;28;20209;-66
2021/06/21 06:27:07;;;;;;;1.97;1.00;;;23.10;99.90;;;;;;5032804;28;20583;-68
2021/06/21 06:29:33;;;;;;;2.37;0.93;;;23.10;99.90;;;;;;5033072;28;20203;-68
2021/06/21 06:32:00;;;;;;;3.53;1.60;;;23.00;99.90;;;;;;5033365;28;20417;-66
2021/06/21 06:34:26;;;;;;;3.10;0.87;;;23.00;99.90;;;;;;5033254;28;20460;-68
2021/06/21 06:36:52;;;;;;;1.43;1.00;;;23.10;99.90;;;;;;5033100;28;20419;-65
2021/06/21 06:39:18;;;;;;;2.23;1.40;;;23.10;99.90;;;;;;5032488;28;20222;-70
2021/06/21 06:41:44;;;;;;;4.57;1.40;;;23.00;99.90;;;;;;5034881;28;20423;-68
2021/06/21 06:44:10;;;;;;;2.47;1.17;;;23.10;99.90;;;;;;5037249;28;20412;-66
2021/06/21 06:46:35;;;;;;;2.30;1.10;;;23.10;99.90;;;;;;5036775;28;20191;-67
2021/06/21 06:49:02;;;;;;;1.63;1.50;;;23.10;99.90;;;;;;5036523;28;20234;-67
2021/06/21 06:51:30;;;;;;;4.23;1.07;;;23.00;99.90;;;;;;5036880;28;20176;-66
2021/06/21 06:54:04;;;;;;;2.93;1.50;;;23.10;99.90;;;;;;5034209;28;20470;-65
2021/06/21 06:59:15;;;;;;;1.57;1.43;;;23.40;99.90;;;;;;5036266;28;20506;-66
2021/06/21 07:01:42;;;;;;;2.23;1.20;;;23.50;99.90;;;;;;5035954;28;20766;-69
2021/06/21 07:04:08;;;;;;;3.43;1.10;;;23.50;99.90;;;;;;5036388;28;20397;-69
2021/06/21 07:06:34;;;;;;;1.27;1.00;;;23.60;99.90;;;;;;5036004;28;20425;-68
2021/06/21 07:08:59;;;;;;;2.07;1.80;;;23.60;99.90;;;;;;5035611;28;21012;-68
2021/06/21 07:11:26;;;;;;;4.63;1.70;;;23.70;99.90;;;;;;5035884;28;20266;-67
2021/06/21 07:13:51;;;;;;;2.00;1.70;;;23.90;99.90;;;;;;5035630;28;20218;-69
2021/06/21 07:16:17;;;;;;;2.10;2.00;;;24.10;99.90;;;;;;5036056;28;20903;-69
2021/06/21 07:18:43;;;;;;;2.00;1.07;;;24.20;99.90;;;;;;5035608;28;20198;-69
2021/06/21 07:21:09;;;;;;;0.73;0.73;;;24.40;99.90;;;;;;5035999;28;20170;-66
2021/06/21 07:23:35;;;;;;;0.80;0.80;;;24.60;99.90;;;;;;5036385;28;20178;-67
2021/06/21 07:26:01;;;;;;;0.80;0.80;;;24.80;99.90;;;;;;5036055;28;20409;-68
2021/06/21 07:28:26;;;;;;;2.60;0.70;;;25.10;99.90;;;;;;5035741;28;20232;-69
2021/06/21 07:30:52;;;;;;;0.70;0.70;;;25.50;99.90;;;;;;5036151;28;20231;-67
2021/06/21 07:33:19;;;;;;;1.10;0.97;;;26.00;99.90;;;;;;5035916;28;20217;-69
2021/06/21 07:35:44;;;;;;;1.43;1.00;;;26.80;99.90;;;;;;5036002;28;20268;-68
2021/06/21 07:38:10;;;;;;;0.97;0.93;;;27.70;99.60;;;;;;5035498;28;20390;-69
2021/06/21 07:40:37;;;;;;;4.40;2.23;;;28.60;97.30;;;;;;5035733;28;20174;-70
2021/06/21 07:43:04;;;;;;;1.20;1.10;;;29.50;95.70;;;;;;5035855;28;20380;-68
2021/06/21 07:45:30;;;;;;;1.53;1.20;;;30.50;94.20;;;;;;5035924;28;20417;-69
2021/06/21 07:47:58;;;;;;;2.13;1.30;;;31.50;92.70;;;;;;5035439;28;20416;-68
2021/06/21 07:50:25;;;;;;;3.83;1.30;;;32.50;90.20;;;;;;5035828;28;20425;-70
2021/06/21 07:52:50;;;;;;;5.57;2.00;;;33.10;90.30;;;;;;5034578;28;20427;-69
2021/06/21 07:55:16;;;;;;;3.43;2.00;;;34.00;82.50;;;;;;5033858;28;21037;-66
2021/06/21 07:57:42;;;;;;;2.40;1.57;;;34.80;82.60;;;;;;5035014;28;20536;-71
2021/06/21 08:00:08;;;;;;;1.20;1.10;;;35.40;81.10;;;;;;5035710;28;20186;-68
2021/06/21 08:02:33;;;;;;;1.13;1.03;;;35.90;76.90;;;;;;5035934;28;20263;-69
2021/06/21 08:04:59;;;;;;;2.40;1.20;;;36.10;71.30;;;;;;5034431;28;20457;-69
2021/06/21 08:07:25;;;;;;;1.77;1.30;;;36.20;75.40;;;;;;5035384;28;20190;-68
2021/06/21 08:09:50;;;;;;;3.13;2.80;;;36.50;69.30;;;;;;5035083;28;20205;-72
2021/06/21 08:12:16;;;;;;;1.70;1.60;;;36.70;69.50;;;;;;5035768;28;20629;-72
2021/06/21 08:14:43;;;;;;;1.53;1.13;;;36.90;68.50;;;;;;5035297;28;20324;-73
2021/06/21 08:17:09;;;;;;;1.90;1.23;;;37.20;64.40;;;;;;5033799;28;20541;-72
2021/06/21 08:19:35;;;;;;;1.10;1.00;;;37.50;64.50;;;;;;5035358;28;20433;-74
2021/06/21 08:22:00;;;;;;;1.60;0.90;;;37.90;60.80;;;;;;5035438;28;20791;-72
2021/06/21 08:24:26;;;;;;;1.93;1.60;;;38.00;60.70;;;;;;5035076;28;20202;-71
2021/06/21 08:26:53;;;;;;;1.97;1.80;;;38.40;56.80;;;;;;5034965;28;20261;-71
2021/06/21 08:29:19;;;;;;;2.23;1.83;;;38.20;59.40;;;;;;5034678;28;20233;-71
2021/06/21 08:31:45;;;;;;;1.93;1.53;;;37.80;57.80;;;;;;5034955;28;20448;-72
2021/06/21 08:34:10;;;;;;;2.33;1.43;;;37.50;61.70;;;;;;5034953;28;20174;-72
2021/06/21 08:36:36;;;;;;;1.00;1.00;;;37.20;59.60;;;;;;5035179;28;20553;-71
2021/06/21 08:39:03;;;;;;;1.33;1.23;;;36.80;66.00;;;;;;5034520;28;20273;-71
2021/06/21 08:41:29;;;;;;;1.77;1.63;;;36.80;64.70;;;;;;5034720;28;20179;-71
2021/06/21 08:43:54;;;;;;;0.97;0.97;;;36.90;60.30;;;;;;5034865;28;20507;-72
2021/06/21 08:46:20;;;;;;;2.60;1.67;;;37.10;61.00;;;;;;5035263;28;20170;-73
2021/06/21 08:48:47;;;;;;;1.20;1.10;;;37.10;60.00;;;;;;5034482;28;20261;-73
2021/06/21 08:51:14;;;;;;;2.97;1.40;;;37.20;59.10;;;;;;5034705;28;20166;-72
2021/06/21 08:53:40;;;;;;;1.80;1.40;;;37.40;60.90;;;;;;5034619;28;20444;-73
2021/06/21 08:56:07;;;;;;;1.10;1.10;;;37.60;59.60;;;;;;5034111;28;20931;-73
2021/06/21 08:58:33;;;;;;;1.47;1.20;;;38.00;59.70;;;;;;5034200;28;20273;-73
2021/06/21 09:00:59;;;;;;;2.93;1.67;;;38.20;56.90;;;;;;5034638;28;20412;-73
2021/06/21 09:03:25;;;;;;;1.27;1.27;;;38.50;56.70;;;;;;5034413;28;20763;-73
2021/06/21 09:05:51;;;;;;;4.23;1.60;;;38.40;57.50;;;;;;5034301;28;20189;-72
2021/06/21 09:08:16;;;;;;;2.17;1.20;;;38.20;56.30;;;;;;5034191;28;20171;-73
2021/06/21 09:10:42;;;;;;;2.30;1.30;;;38.20;56.30;;;;;;5033917;28;20197;-71
2021/06/21 09:13:16;;;;;;;1.73;1.63;;;38.00;58.40;;;;;;5034431;28;20253;-73
2021/06/21 09:15:56;;;;;;;3.33;1.70;;;38.40;54.20;;;;;;5034168;28;20494;-73
2021/06/21 09:18:35;;;;;;;1.97;1.87;;;38.50;55.00;;;;;;5033932;28;20756;-73
2021/06/21 09:21:21;;;;;;;1.30;1.30;;;38.30;54.20;;;;;;5034484;28;20475;-71
2021/06/21 09:23:49;;;;;;;1.67;1.50;;;38.30;53.90;;;;;;5033813;28;20467;-73
2021/06/21 09:26:20;;;;;;;1.20;1.20;;;38.30;55.10;;;;;;5034371;28;20401;-74
2021/06/21 09:28:47;;;;;;;1.77;1.57;;;38.50;55.50;;;;;;5033615;28;20780;-73
2021/06/21 09:31:14;;;;;;;1.90;1.70;;;38.80;56.20;;;;;;5033960;28;20413;-73
2021/06/21 09:33:40;;;;;;;1.63;1.50;;;38.80;55.00;;;;;;5034035;28;20401;-74
2021/06/21 09:36:06;;;;;;;3.47;1.63;;;39.00;56.50;;;;;;5033620;28;20421;-74
2021/06/21 09:38:32;;;;;;;1.43;1.40;;;39.10;54.50;;;;;;5033350;28;20200;-74
2021/06/21 09:40:58;;;;;;;1.90;1.80;;;39.40;54.20;;;;;;5034263;28;20488;-73
2021/06/21 09:43:27;;;;;;;1.63;1.53;;;39.50;52.20;;;;;;5033958;28;20178;-73
2021/06/21 09:46:11;;;;;;;1.90;1.87;;;39.90;53.20;;;;;;5034012;28;20400;-73
2021/06/21 09:48:50;;;;;;;3.40;1.80;;;40.10;53.40;;;;;;5033418;28;20428;-73
2021/06/21 09:51:29;;;;;;;1.57;1.50;;;40.20;52.20;;;;;;5033384;28;20421;-74
2021/06/21 09:54:03;;;;;;;2.03;1.93;;;40.30;51.30;;;;;;5033823;28;20488;-74
2021/06/21 09:56:47;;;;;;;2.00;1.90;;;40.30;50.30;;;;;;5033475;28;20408;-72
2021/06/21 09:59:34;;;;;;;1.67;1.63;;;40.30;50.00;;;;;;5032861;28;20519;-74
2021/06/21 10:02:11;;;;;;;1.47;1.40;;;39.90;49.00;;;;;;5032448;28;20423;-72
2021/06/21 10:04:40;;;;;;;1.57;1.47;;;39.30;48.70;;;;;;5033648;28;20479;-72
2021/06/21 10:07:25;;;;;;;3.87;3.57;;;39.10;50.10;;;;;;5033406;28;20429;-73
2021/06/21 10:09:52;;;;;;;2.50;2.30;;;39.00;49.50;;;;;;5030832;28;20970;-73
2021/06/21 10:12:19;;;;;;;1.80;1.70;;;39.10;49.70;;;;;;5032139;28;20417;-71
2021/06/21 10:14:45;;;;;;;2.03;1.93;;;39.00;50.70;;;;;;5033195;28;20459;-72
2021/06/21 10:17:11;;;;;;;2.30;1.80;;;39.20;50.60;;;;;;5032517;28;20412;-73
2021/06/21 10:19:36;;;;;;;1.70;1.60;;;39.10;51.00;;;;;;5032970;28;20194;-72
2021/06/21 10:22:03;;;;;;;1.60;1.60;;;38.50;51.10;;;;;;5033234;28;20182;-73
2021/06/21 10:24:31;;;;;;;2.70;1.90;;;38.60;51.10;;;;;;5033441;28;20201;-73
2021/06/21 10:26:59;;;;;;;2.27;1.77;;;38.90;50.70;;;;;;5032111;28;20496;-73
2021/06/21 10:29:25;;;;;;;1.43;1.33;;;38.90;52.10;;;;;;5032450;28;20440;-72
2021/06/21 10:31:51;;;;;;;1.33;1.33;;;38.70;51.00;;;;;;5032402;28;20938;-72
2021/06/21 10:34:19;;;;;;;1.33;1.33;;;38.40;51.80;;;;;;5032846;28;20420;-72
2021/06/21 10:36:50;;;;;;;4.10;1.83;;;38.50;51.10;;;;;;5033262;28;20401;-71
2021/06/21 10:39:20;;;;;;;1.50;1.50;;;38.00;50.90;;;;;;5032612;28;20437;-71
2021/06/21 10:42:04;;;;;;;2.13;1.77;;;38.10;51.00;;;;;;5033246;28;20405;-71
2021/06/21 10:44:55;;;;;;;3.13;1.73;;;37.50;51.70;;;;;;5032856;28;20445;-71
2021/06/21 10:47:25;;;;;;;1.67;1.20;;;36.60;54.00;;;;;;5031543;28;20421;-74
2021/06/21 10:50:09;;;;;;;4.10;1.40;;;35.50;53.80;;;;;;5033379;28;20519;-71
2021/06/21 10:52:51;;;;;;;1.87;1.50;;;35.90;54.70;;;;;;5033041;28;20407;-73
2021/06/21 10:55:35;;;;;;;1.50;1.40;;;36.30;52.10;;;;;;5032874;28;20459;-73
2021/06/21 10:58:04;;;;;;;1.30;1.20;;;35.60;51.70;;;;;;5032640;28;20433;-73
2021/06/21 11:00:43;;;;;;;1.37;1.27;;;35.50;53.30;;;;;;5032944;28;20527;-74
2021/06/21 11:03:31;;;;;;;1.40;1.30;;;35.70;52.70;;;;;;5033251;28;20412;-71
2021/06/21 11:06:06;;;;;;;3.63;1.80;;;35.80;53.70;;;;;;5031585;28;21017;-73
2021/06/21 11:08:34;;;;;;;1.40;1.30;;;35.80;53.90;;;;;;5032377;28;20420;-72
2021/06/21 11:11:00;;;;;;;3.40;1.80;;;35.80;55.30;;;;;;5032727;28;20424;-72
2021/06/21 11:13:32;;;;;;;1.90;1.40;;;35.80;55.60;;;;;;5036861;28;20387;-73
2021/06/21 11:16:39;;;;;;;1.63;1.53;;;35.50;53.80;;;;;;5031771;28;20395;-72
2021/06/21 11:19:20;;;;;;;1.60;1.50;;;34.80;56.30;;;;;;4949656;29;20431;-71
2021/06/21 11:21:53;;;;;;;1.40;1.30;;;34.00;57.40;;;;;;4952134;28;20398;-72
2021/06/21 11:24:37;;;;;;;1.60;1.50;;;33.50;57.90;;;;;;4936580;29;20644;-71
2021/06/21 11:27:24;;;;;;;1.97;1.73;;;32.50;58.80;;;;;;4934039;29;20419;-73
2021/06/21 11:29:58;;;;;;;1.47;1.40;;;31.80;59.70;;;;;;4936220;29;20444;-68
2021/06/21 11:32:25;;;;;;;2.00;1.30;;;31.00;62.90;;;;;;4936621;29;20833;-66
2021/06/21 11:35:01;;;;;;;1.80;1.70;;;30.40;65.70;;;;;;4936415;29;20444;-65
2021/06/21 11:37:38;;;;;;;1.80;1.47;;;30.20;63.40;;;;;;4956113;28;20444;-70
2021/06/21 11:40:15;;;;;;;1.20;1.10;;;30.00;65.80;;;;;;4956717;28;21144;-68
2021/06/21 11:43:01;;;;;;;1.97;1.73;;;29.90;63.10;;;;;;4951720;28;20425;-66
2021/06/21 11:45:46;;;;;;;1.87;1.77;;;30.00;63.20;;;;;;4943135;29;21444;-68
2021/06/21 11:48:18;;;;;;;1.43;1.33;;;29.90;69.80;;;;;;4946885;28;20444;-69
2021/06/21 11:50:44;;;;;;;1.67;1.57;;;29.90;66.50;;;;;;4952491;28;20436;-66
2021/06/21 11:53:09;;;;;;;1.63;1.20;;;30.00;67.50;;;;;;4953045;28;20444;-67
2021/06/21 11:55:35;;;;;;;1.10;1.10;;;29.90;65.60;;;;;;4975156;28;20209;-68
2021/06/21 11:58:01;;;;;;;1.33;1.23;;;30.00;70.10;;;;;;5032571;28;20652;-67
2021/06/21 12:00:34;;;;;;;3.90;1.53;;;30.20;70.60;;;;;;5034043;28;20419;-66
2021/06/21 12:03:05;;;;;;;1.93;1.30;;;30.40;65.40;;;;;;5029607;28;20425;-66
2021/06/21 12:05:31;;;;;;;2.53;1.60;;;30.20;65.40;;;;;;5035334;28;20796;-65
2021/06/21 12:07:57;;;;;;;1.67;1.50;;;30.20;63.20;;;;;;5036402;28;20420;-67
2021/06/21 12:10:23;;;;;;;1.37;1.27;;;30.20;67.80;;;;;;5048014;28;20606;-67
2021/06/21 12:12:53;;;;;;;2.10;1.40;;;30.20;68.10;;;;;;5051139;28;20488;-65
2021/06/21 12:15:38;;;;;;;2.93;1.13;;;30.00;65.60;;;;;;5033636;28;20443;-65
2021/06/21 12:18:04;;;;;;;5.90;1.57;;;29.90;66.10;;;;;;5035108;28;20384;-63
2021/06/21 12:20:33;;;;;;;5.37;1.80;;;29.80;68.20;;;;;;5050619;28;20516;-69
2021/06/21 12:23:03;;;;;;;1.07;0.97;;;29.60;67.70;;;;;;5042626;28;20405;-66
2021/06/21 12:25:40;;;;;;;3.10;1.60;;;29.50;70.40;;;;;;5022090;28;20989;-66
2021/06/21 12:28:21;;;;;;;1.30;1.03;;;29.20;66.60;;;;;;5033273;28;20419;-65
2021/06/21 12:30:52;;;;;;;1.47;1.37;;;28.90;69.70;;;;;;5031286;28;20390;-67
2021/06/21 12:33:26;;;;;;;1.63;1.53;;;28.80;71.10;;;;;;5022628;28;20423;-64
2021/06/21 12:36:10;;;;;;;2.30;1.60;;;28.70;70.50;;;;;;5029672;28;20432;-66
2021/06/21 12:38:41;;;;;;;2.80;1.73;;;28.50;70.00;;;;;;5026556;28;20808;-67
2021/06/21 12:41:15;;;;;;;3.03;1.30;;;28.40;69.40;;;;;;5028880;28;20438;-68
2021/06/21 12:43:52;;;;;;;1.60;1.50;;;28.40;69.20;;;;;;5023516;28;20427;-67
2021/06/21 12:46:19;;;;;;;1.90;1.43;;;28.40;69.20;;;;;;5025861;28;20413;-67
2021/06/21 12:48:45;;;;;;;1.53;1.40;;;28.40;69.70;;;;;;5026024;28;20492;-67
2021/06/21 12:51:14;;;;;;;2.07;1.47;;;28.40;72.30;;;;;;5024116;28;20772;-66
2021/06/21 12:53:49;;;;;;;3.97;3.23;;;28.40;73.30;;;;;;5027895;28;20201;-67
2021/06/21 12:56:28;;;;;;;1.67;1.47;;;28.40;74.10;;;;;;5024704;28;20925;-67
2021/06/21 12:58:56;;;;;;;2.77;1.13;;;28.50;74.30;;;;;;5027069;28;20491;-66
2021/06/21 13:01:33;;;;;;;1.37;1.27;;;28.80;77.90;;;;;;5025131;28;20439;-66